Terminal Aerodrome Forecast
Issued by NWS

Home | Current Version | Previous Version | Text Only | Print | Product List | Glossary On
Versions: 1 2 3 4 5 6 7 8 9 10 11 12 13 14 15 16 17 18 19 20 21 22 23 24
000
FTUS44 KLIX 231700
TAFHDC
TAF
KHDC 231720Z 2318/2418 VRB05KT P6SM FEW030 SCT050
     FM231900 VRB06KT P6SM VCSH BKN050 BKN150
      TEMPO 2320/2324 3SM TSRA BKN035CB
     FM240200 VRB05KT P6SM FEW030 SCT150=

USA.gov is the U.S. government's official web portal to all federal, state and local government web resources and services.